Terminal Aerodrome Forecast
Issued by NWS Portland, OR

Current Version | Previous Version | Text Only | Print | Product List | Glossary On
Versions: 1 2 3 4 5 6 7 8 9 10 11 12 13 14 15 16 17
000
FTUS46 KPQR 182330
TAFAST
TAF
KAST 182330Z 1900/1924 36008KT P6SM BKN025 BKN040
     FM190100 02008KT P6SM SCT030
     FM190800 05007KT P6SM FEW030
     FM191600 08007KT P6SM SKC=

USA.gov is the U.S. government's official web portal to all federal, state and local government web resources and services.